createdAt,value
2023-02-21T00:01:01.539Z,4.15
2023-02-21T00:03:47.134Z,3.60
2023-02-21T00:06:32.613Z,4.18
2023-02-21T00:09:18.130Z,3.60
2023-02-21T00:12:04.219Z,5.13
2023-02-21T00:14:49.896Z,3.85
2023-02-21T00:17:35.408Z,5.97
2023-02-21T00:20:20.904Z,4.53
2023-02-21T00:23:06.555Z,3.80
2023-02-21T00:25:52.128Z,3.65
2023-02-21T00:28:37.652Z,3.83
2023-02-21T00:31:23.911Z,3.83
2023-02-21T00:34:09.191Z,3.47
2023-02-21T00:36:54.637Z,4.05
2023-02-21T00:39:40.239Z,3.65
2023-02-21T00:42:25.752Z,3.00
2023-02-21T00:45:11.293Z,3.00
2023-02-21T00:47:56.665Z,3.75
2023-02-21T00:50:43.170Z,3.80
2023-02-21T00:53:28.816Z,3.03
2023-02-21T00:56:14.331Z,2.72
2023-02-21T00:58:59.856Z,2.70
2023-02-21T01:01:45.546Z,2.83
2023-02-21T01:04:31.070Z,3.03
2023-02-21T01:07:16.631Z,3.13
2023-02-21T01:10:02.101Z,2.72
2023-02-21T01:12:47.652Z,2.38
2023-02-21T01:15:33.673Z,2.65
2023-02-21T01:18:19.353Z,4.57
2023-02-21T01:21:07.592Z,2.80
2023-02-21T01:23:53.309Z,2.38
2023-02-21T01:26:39.040Z,3.42
2023-02-21T01:29:24.732Z,2.50
2023-02-21T01:32:10.233Z,2.13
2023-02-21T01:34:55.861Z,3.00
2023-02-21T01:37:41.398Z,2.70
2023-02-21T01:40:27.446Z,2.28
2023-02-21T01:43:13.081Z,2.42
2023-02-21T01:46:08.250Z,1.90
2023-02-21T01:48:55.510Z,2.25
2023-02-21T01:51:46.322Z,2.03
2023-02-21T01:54:36.016Z,2.33
2023-02-21T01:57:23.200Z,1.77
2023-02-21T02:00:10.648Z,2.47
2023-02-21T02:03:22.754Z,1.50
2023-02-21T02:06:13.005Z,1.80
2023-02-21T02:08:58.402Z,1.95
2023-02-21T02:11:55.754Z,1.77
2023-02-21T02:14:29.106Z,2.00
2023-02-21T02:17:25.312Z,1.42
2023-02-21T02:20:13.367Z,1.70
2023-02-21T02:22:52.220Z,1.90
2023-02-21T02:25:34.325Z,1.45
2023-02-21T02:28:22.612Z,2.22
2023-02-21T02:30:58.853Z,1.30
2023-02-21T02:33:47.475Z,1.60
2023-02-21T02:36:22.778Z,1.40
2023-02-21T02:39:08.066Z,1.10
2023-02-21T02:41:49.940Z,0.85
2023-02-21T02:44:38.004Z,0.85
2023-02-21T02:47:09.128Z,1.05
2023-02-21T02:49:40.874Z,1.08
2023-02-21T02:52:09.877Z,1.88
2023-02-21T02:54:37.821Z,0.70
2023-02-21T02:57:10.769Z,0.95
2023-02-21T02:59:41.022Z,1.10
2023-02-21T03:02:10.629Z,0.77
2023-02-21T03:04:41.501Z,0.70
2023-02-21T03:07:23.524Z,0.80
2023-02-21T03:09:56.058Z,0.85
2023-02-21T03:12:45.266Z,1.02
2023-02-21T03:15:36.538Z,1.10
2023-02-21T03:18:16.322Z,1.00
2023-02-21T03:20:44.492Z,1.20
2023-02-21T03:23:15.804Z,0.93
2023-02-21T03:25:45.720Z,1.10
2023-02-21T03:28:13.016Z,0.77
2023-02-21T03:30:41.659Z,0.90
2023-02-21T03:33:08.590Z,0.90
2023-02-21T03:35:35.486Z,1.00
2023-02-21T03:38:02.248Z,0.90
2023-02-21T03:40:31.833Z,0.88
2023-02-21T03:43:01.025Z,0.65
2023-02-21T03:45:27.821Z,2.55
2023-02-21T03:47:54.536Z,1.83
2023-02-21T03:50:21.486Z,1.02
2023-02-21T03:52:48.228Z,0.93
2023-02-21T03:55:14.962Z,0.90
2023-02-21T03:57:41.694Z,1.02
2023-02-21T04:00:09.058Z,1.10
2023-02-21T04:02:35.921Z,0.80
2023-02-21T04:05:03.008Z,0.80
2023-02-21T04:07:29.808Z,0.85
2023-02-21T04:09:56.574Z,0.80
2023-02-21T04:12:23.662Z,1.20
2023-02-21T04:14:52.361Z,1.00
2023-02-21T04:17:19.158Z,1.58
2023-02-21T04:19:45.892Z,1.52
2023-02-21T04:22:12.699Z,1.23
2023-02-21T04:24:39.649Z,1.48
2023-02-21T04:27:06.442Z,1.35
2023-02-21T04:29:33.277Z,1.45
2023-02-21T04:32:00.249Z,1.35
2023-02-21T04:34:27.040Z,1.77
2023-02-21T04:36:53.773Z,1.60
2023-02-21T04:39:20.572Z,1.25
2023-02-21T04:41:47.340Z,1.17
2023-02-21T04:44:14.153Z,1.25
2023-02-21T04:46:40.872Z,1.20
2023-02-21T04:49:07.655Z,1.42
2023-02-21T04:51:34.382Z,1.60
2023-02-21T04:54:01.313Z,1.60
2023-02-21T04:56:29.148Z,1.10
2023-02-21T04:58:56.283Z,1.40
2023-02-21T05:01:23.629Z,1.42
2023-02-21T05:03:50.466Z,1.38
2023-02-21T05:06:22.498Z,1.50
2023-02-21T05:08:49.954Z,1.70
2023-02-21T05:11:18.045Z,2.10
2023-02-21T05:13:45.602Z,2.70
2023-02-21T05:16:12.724Z,1.92
2023-02-21T05:18:42.345Z,1.70
2023-02-21T05:21:09.643Z,1.90
2023-02-21T05:23:37.066Z,1.90
2023-02-21T05:26:06.757Z,2.15
2023-02-21T05:28:33.831Z,1.70
2023-02-21T05:31:13.394Z,1.60
2023-02-21T05:33:40.185Z,1.52
2023-02-21T05:36:07.386Z,1.75
2023-02-21T05:38:44.141Z,1.45
2023-02-21T05:41:10.842Z,1.50
2023-02-21T05:43:37.614Z,1.67
2023-02-21T05:46:04.537Z,1.23
2023-02-21T05:48:31.683Z,1.23
2023-02-21T05:50:58.373Z,1.33
2023-02-21T05:53:25.102Z,1.42
2023-02-21T05:55:51.823Z,0.95
2023-02-21T05:58:18.574Z,0.95
2023-02-21T06:00:45.278Z,0.88
2023-02-21T06:03:12.056Z,0.90
2023-02-21T06:05:38.827Z,0.82
2023-02-21T06:08:05.672Z,0.80
2023-02-21T06:10:32.444Z,0.82
2023-02-21T06:12:59.160Z,0.70
2023-02-21T06:15:26.172Z,0.77
2023-02-21T06:17:52.901Z,0.65
2023-02-21T06:20:19.688Z,0.80
2023-02-21T06:22:47.483Z,0.70
2023-02-21T06:25:14.276Z,0.65
2023-02-21T06:27:41.074Z,0.65
2023-02-21T06:30:10.574Z,0.57
2023-02-21T06:32:38.577Z,2.78
2023-02-21T06:35:05.602Z,0.55
2023-02-21T06:37:32.399Z,0.57
2023-02-21T06:39:59.172Z,0.73
2023-02-21T06:42:25.989Z,0.95
2023-02-21T06:44:53.814Z,0.98
2023-02-21T06:47:20.595Z,0.65
2023-02-21T06:49:47.355Z,0.60
2023-02-21T06:52:14.250Z,0.57
2023-02-21T06:54:41.153Z,0.90
2023-02-21T06:57:07.949Z,0.80
2023-02-21T06:59:34.733Z,1.08
2023-02-21T07:02:02.946Z,1.00
2023-02-21T07:04:29.745Z,1.15
2023-02-21T07:06:56.564Z,1.33
2023-02-21T07:09:23.314Z,1.15
2023-02-21T07:11:50.149Z,1.90
2023-02-21T07:14:16.943Z,0.80
2023-02-21T07:16:43.739Z,1.23
2023-02-21T07:21:43.042Z,1.35
2023-02-21T07:24:09.883Z,1.30
2023-02-21T07:26:37.975Z,1.30
2023-02-21T07:29:06.188Z,2.17
2023-02-21T07:31:33.839Z,1.60
2023-02-21T07:34:00.704Z,1.55
2023-02-21T07:36:27.537Z,1.60
2023-02-21T07:38:54.398Z,1.38
2023-02-21T07:41:21.221Z,1.90
2023-02-21T07:43:47.956Z,1.85
2023-02-21T07:46:16.761Z,1.90
2023-02-21T07:48:45.754Z,2.05
2023-02-21T07:51:12.934Z,2.28
2023-02-21T07:53:40.628Z,1.20
2023-02-21T07:56:07.553Z,1.48
2023-02-21T07:58:37.478Z,1.13
2023-02-21T08:01:06.553Z,0.98
2023-02-21T08:03:33.545Z,1.17
2023-02-21T08:06:00.451Z,0.90
2023-02-21T08:08:27.211Z,1.30
2023-02-21T08:10:56.748Z,1.25
2023-02-21T08:13:23.552Z,1.30
2023-02-21T08:15:50.330Z,0.98
2023-02-21T08:18:20.968Z,1.10
2023-02-21T08:20:48.012Z,0.93
2023-02-21T08:23:14.763Z,1.90
2023-02-21T08:25:41.494Z,0.88
2023-02-21T08:28:08.216Z,0.82
2023-02-21T08:30:34.985Z,0.60
2023-02-21T08:33:01.768Z,0.77
2023-02-21T08:35:28.622Z,1.02
2023-02-21T08:38:03.076Z,0.93
2023-02-21T08:40:31.463Z,0.60
2023-02-21T08:42:59.858Z,0.50
2023-02-21T08:45:28.330Z,1.10
2023-02-21T08:47:55.720Z,1.20
2023-02-21T08:50:24.605Z,0.82
2023-02-21T08:52:51.857Z,1.13
2023-02-21T08:55:22.613Z,1.10
2023-02-21T08:57:51.238Z,0.80
2023-02-21T09:00:19.612Z,0.75
2023-02-21T09:02:46.390Z,0.73
2023-02-21T09:05:20.796Z,0.93
2023-02-21T09:07:55.187Z,1.13
2023-02-21T09:10:28.179Z,0.82
2023-02-21T09:12:55.332Z,1.13
2023-02-21T09:15:22.608Z,0.70
2023-02-21T09:17:50.900Z,0.82
2023-02-21T09:20:25.307Z,0.80
2023-02-21T09:22:52.305Z,0.90
2023-02-21T09:25:24.617Z,0.60
2023-02-21T09:30:26.271Z,0.50
2023-02-21T09:32:54.816Z,0.60
2023-02-21T09:35:22.922Z,0.45
2023-02-21T09:37:49.676Z,0.50
2023-02-21T09:40:28.094Z,0.45
2023-02-21T09:42:58.872Z,0.30
2023-02-21T09:45:29.788Z,0.30
2023-02-21T09:47:59.230Z,0.30
2023-02-21T09:50:33.806Z,0.28
2023-02-21T09:53:01.529Z,0.57
2023-02-21T09:55:35.635Z,0.30
2023-02-21T09:58:03.208Z,0.65
2023-02-21T10:00:36.518Z,0.20
2023-02-21T10:03:41.187Z,0.32
2023-02-21T10:06:27.000Z,0.20
2023-02-21T10:09:06.620Z,0.15
2023-02-21T10:12:01.842Z,0.10
2023-02-21T10:14:52.816Z,0.20
2023-02-21T10:17:28.049Z,0.40
2023-02-21T10:20:02.444Z,0.20
2023-02-21T10:22:34.812Z,0.15
2023-02-21T10:25:23.480Z,0.20
2023-02-21T10:27:52.283Z,0.30
2023-02-21T10:30:29.203Z,0.20
2023-02-21T10:32:57.217Z,0.35
2023-02-21T10:35:24.902Z,0.30
2023-02-21T10:37:54.777Z,0.20
2023-02-21T10:40:36.282Z,0.35
2023-02-21T10:43:34.966Z,0.20
2023-02-21T10:46:14.231Z,0.20
2023-02-21T10:48:43.350Z,0.20
2023-02-21T10:51:16.054Z,0.28
2023-02-21T10:53:45.626Z,0.20
2023-02-21T10:56:15.416Z,0.28
2023-02-21T10:58:54.469Z,0.50
2023-02-21T11:01:27.222Z,0.50
2023-02-21T11:04:05.317Z,0.50
2023-02-21T11:06:34.141Z,0.20
2023-02-21T11:09:01.596Z,0.20
2023-02-21T11:11:40.927Z,0.30
2023-02-21T11:14:25.731Z,0.13
2023-02-21T11:17:06.957Z,0.20
2023-02-21T11:19:48.845Z,0.13
2023-02-21T11:22:19.786Z,0.20
2023-02-21T11:24:52.292Z,0.20
2023-02-21T11:27:19.214Z,0.38
2023-02-21T11:29:49.599Z,0.40
2023-02-21T11:32:30.484Z,0.10
2023-02-21T11:35:21.495Z,0.30
2023-02-21T11:37:57.605Z,0.30
2023-02-21T11:40:32.733Z,0.25
2023-02-21T11:43:19.342Z,0.40
2023-02-21T11:45:59.786Z,0.88
2023-02-21T11:48:33.027Z,0.60
2023-02-21T11:51:07.459Z,0.52
2023-02-21T11:53:43.592Z,0.30
2023-02-21T11:56:30.351Z,0.10
2023-02-21T11:59:02.013Z,0.28
2023-02-21T12:01:50.976Z,0.10
2023-02-21T12:04:32.294Z,0.30
2023-02-21T12:07:16.560Z,0.05
2023-02-21T12:10:01.869Z,0.20
2023-02-21T12:13:14.597Z,0.20
2023-02-21T12:16:12.197Z,0.30
2023-02-21T12:18:50.678Z,0.38
2023-02-21T12:21:39.126Z,1.25
2023-02-21T12:24:14.540Z,0.10
2023-02-21T12:27:03.247Z,0.20
2023-02-21T12:29:55.598Z,0.30
2023-02-21T12:32:41.092Z,0.30
2023-02-21T12:35:31.417Z,0.30
2023-02-21T12:38:04.666Z,0.60
2023-02-21T12:40:57.797Z,0.10
2023-02-21T12:43:52.162Z,0.20
2023-02-21T12:46:43.599Z,0.30
2023-02-21T12:49:19.789Z,0.20
2023-02-21T12:51:56.357Z,0.20
2023-02-21T12:54:55.612Z,0.10
2023-02-21T12:57:30.843Z,3.53
2023-02-21T13:00:17.797Z,2.10
2023-02-21T13:02:50.984Z,0.28
2023-02-21T13:05:23.788Z,0.73
2023-02-21T13:08:00.327Z,0.30
2023-02-21T13:10:34.978Z,0.40
2023-02-21T13:13:15.213Z,0.30
2023-02-21T13:15:46.056Z,0.55
2023-02-21T13:18:19.954Z,0.52
2023-02-21T13:20:56.275Z,0.95
2023-02-21T13:23:24.298Z,0.60
2023-02-21T13:26:05.015Z,0.40
2023-02-21T13:28:36.859Z,0.40
2023-02-21T13:31:06.813Z,0.28
2023-02-21T13:33:45.456Z,0.20
2023-02-21T13:36:39.597Z,0.35
2023-02-21T13:39:10.388Z,0.30
2023-02-21T13:41:52.847Z,0.30
2023-02-21T13:44:33.371Z,0.10
2023-02-21T13:47:10.724Z,0.20
2023-02-21T13:49:50.943Z,0.30
2023-02-21T13:52:23.569Z,0.25
2023-02-21T13:55:10.278Z,0.30
2023-02-21T13:57:39.739Z,0.38
2023-02-21T14:00:39.000Z,0.40
2023-02-21T14:03:18.236Z,0.47
2023-02-21T14:05:47.320Z,0.47
2023-02-21T14:08:19.784Z,0.43
2023-02-21T14:10:50.376Z,0.38
2023-02-21T14:13:54.682Z,0.30
2023-02-21T14:16:24.579Z,0.68
2023-02-21T14:18:59.662Z,0.50
2023-02-21T14:21:37.677Z,1.38
2023-02-21T14:24:10.455Z,1.02
2023-02-21T14:26:54.174Z,0.50
2023-02-21T14:29:41.144Z,0.40
2023-02-21T14:32:08.126Z,0.30
2023-02-21T14:34:50.417Z,0.40
2023-02-21T14:40:12.105Z,0.40
2023-02-21T14:43:16.464Z,0.40
2023-02-21T14:46:17.459Z,0.50
2023-02-21T14:49:02.403Z,0.47
2023-02-21T14:51:53.199Z,0.30
2023-02-21T14:54:42.608Z,0.10
2023-02-21T14:57:15.501Z,0.30
2023-02-21T15:00:14.615Z,0.75
2023-02-21T15:03:06.356Z,0.35
2023-02-21T15:05:53.408Z,0.35
2023-02-21T15:08:25.309Z,0.20
2023-02-21T15:10:58.071Z,0.30
2023-02-21T15:13:29.363Z,0.40
2023-02-21T15:16:03.095Z,1.10
2023-02-21T15:18:35.389Z,0.30
2023-02-21T15:21:20.558Z,0.20
2023-02-21T15:23:59.433Z,0.35
2023-02-21T15:26:31.188Z,0.60
2023-02-21T15:29:08.483Z,0.25
2023-02-21T15:31:39.732Z,0.38
2023-02-21T15:34:06.661Z,0.60
2023-02-21T15:36:33.791Z,0.40
2023-02-21T15:39:08.801Z,0.25
2023-02-21T15:41:50.046Z,0.20
2023-02-21T15:44:23.746Z,0.30
2023-02-21T15:46:58.338Z,0.40
2023-02-21T15:49:33.103Z,0.30
2023-02-21T15:52:01.662Z,0.40
2023-02-21T15:54:32.361Z,0.20
2023-02-21T15:57:09.742Z,0.30
2023-02-21T15:59:37.847Z,0.40
2023-02-21T16:02:14.253Z,0.30
2023-02-21T16:04:43.740Z,0.40
2023-02-21T16:07:35.021Z,0.20
2023-02-21T16:10:05.708Z,0.30
2023-02-21T16:12:37.685Z,0.50
2023-02-21T16:15:23.082Z,0.60
2023-02-21T16:18:00.422Z,0.30
2023-02-21T16:20:38.977Z,0.25
2023-02-21T16:23:20.748Z,0.45
2023-02-21T16:26:09.220Z,0.50
2023-02-21T16:28:40.828Z,0.52
2023-02-21T16:31:12.582Z,0.63
2023-02-21T16:33:39.335Z,0.73
2023-02-21T16:36:09.906Z,0.50
2023-02-21T16:38:36.865Z,0.40
2023-02-21T16:41:03.756Z,0.63
2023-02-21T16:43:30.513Z,1.20
2023-02-21T16:45:58.845Z,0.60
2023-02-21T16:48:34.653Z,0.57
2023-02-21T16:51:04.910Z,0.47
2023-02-21T16:53:31.670Z,0.90
2023-02-21T16:56:00.527Z,0.60
2023-02-21T16:58:31.614Z,0.50
2023-02-21T17:01:13.014Z,0.75
2023-02-21T17:03:40.980Z,0.65
2023-02-21T17:06:08.089Z,0.35
2023-02-21T17:08:34.888Z,0.77
2023-02-21T17:11:01.652Z,0.70
2023-02-21T17:13:28.419Z,0.57
2023-02-21T17:15:55.210Z,0.70
2023-02-21T17:18:21.953Z,0.70
2023-02-21T17:20:48.792Z,0.77
2023-02-21T17:23:15.525Z,0.63
2023-02-21T17:25:42.369Z,0.68
2023-02-21T17:28:09.083Z,0.68
2023-02-21T17:30:35.885Z,0.63
2023-02-21T17:33:02.675Z,0.90
2023-02-21T17:35:29.486Z,1.35
2023-02-21T17:37:56.271Z,1.20
2023-02-21T17:40:23.360Z,1.85
2023-02-21T17:42:50.168Z,2.03
2023-02-21T17:45:19.822Z,1.73
2023-02-21T17:47:47.476Z,2.13
2023-02-21T17:50:15.317Z,1.50
2023-02-21T17:52:42.906Z,1.70
2023-02-21T17:55:17.684Z,0.90
2023-02-21T17:57:44.601Z,0.80
2023-02-21T18:00:21.377Z,1.42
2023-02-21T18:02:49.334Z,1.52
2023-02-21T18:05:16.328Z,1.27
2023-02-21T18:07:46.722Z,2.30
2023-02-21T18:10:13.478Z,2.17
2023-02-21T18:12:40.257Z,1.52
2023-02-21T18:15:07.491Z,1.20
2023-02-21T18:17:34.328Z,2.95
2023-02-21T18:20:01.486Z,2.03
2023-02-21T18:22:28.241Z,1.20
2023-02-21T18:24:54.947Z,1.58
2023-02-21T18:27:22.025Z,1.10
2023-02-21T18:29:54.470Z,1.25
2023-02-21T18:32:21.442Z,1.45
2023-02-21T18:34:48.522Z,1.40
2023-02-21T18:37:15.696Z,1.70
2023-02-21T18:39:42.618Z,9.70
2023-02-21T18:42:09.453Z,1.17
2023-02-21T18:44:36.244Z,1.00
2023-02-21T18:47:03.137Z,1.13
2023-02-21T18:49:34.118Z,1.55
2023-02-21T18:52:03.974Z,1.95
2023-02-21T18:54:30.710Z,1.23
2023-02-21T18:56:59.195Z,1.20
2023-02-21T18:59:26.136Z,2.10
2023-02-21T19:01:54.294Z,1.58
2023-02-21T19:04:21.661Z,1.85
2023-02-21T19:06:48.429Z,2.10
2023-02-21T19:09:15.363Z,1.15
2023-02-21T19:11:42.934Z,1.27
2023-02-21T19:14:10.557Z,0.95
2023-02-21T19:16:38.039Z,0.90
2023-02-21T19:19:05.010Z,1.17
2023-02-21T19:21:32.402Z,1.70
2023-02-21T19:23:59.298Z,1.65
2023-02-21T19:26:30.349Z,1.17
2023-02-21T19:28:57.244Z,1.00
2023-02-21T19:31:24.301Z,1.10
2023-02-21T19:33:51.201Z,1.17
2023-02-21T19:36:20.639Z,1.02
2023-02-21T19:38:48.861Z,1.42
2023-02-21T19:41:18.787Z,1.40
2023-02-21T19:43:46.482Z,1.85
2023-02-21T19:46:24.682Z,1.17
2023-02-21T19:48:51.786Z,1.58
2023-02-21T19:51:20.728Z,1.52
2023-02-21T19:53:47.640Z,2.38
2023-02-21T19:56:14.935Z,2.30
2023-02-21T19:58:42.053Z,1.63
2023-02-21T20:01:09.591Z,1.20
2023-02-21T20:03:36.460Z,1.40
2023-02-21T20:06:04.222Z,1.90
2023-02-21T20:08:31.292Z,1.70
2023-02-21T20:10:58.308Z,1.48
2023-02-21T20:13:25.604Z,1.70
2023-02-21T20:15:52.374Z,1.30
2023-02-21T20:18:19.130Z,1.45
2023-02-21T20:20:48.495Z,1.40
2023-02-21T20:23:17.917Z,1.80
2023-02-21T20:25:44.813Z,1.42
2023-02-21T20:28:11.545Z,1.40
2023-02-21T20:30:38.735Z,1.77
2023-02-21T20:33:07.029Z,1.42
2023-02-21T20:35:35.313Z,2.28
2023-02-21T20:38:05.455Z,1.55
2023-02-21T20:40:33.199Z,1.52
2023-02-21T20:43:00.348Z,1.40
2023-02-21T20:45:28.249Z,1.27
2023-02-21T20:47:55.181Z,1.35
2023-02-21T20:50:26.522Z,1.65
2023-02-21T20:52:55.022Z,1.67
2023-02-21T20:55:27.422Z,1.63
2023-02-21T20:57:54.924Z,2.53
2023-02-21T21:00:23.743Z,1.40
2023-02-21T21:02:51.660Z,1.50
2023-02-21T21:05:19.967Z,2.28
2023-02-21T21:07:47.637Z,1.88
2023-02-21T21:10:16.122Z,1.67
2023-02-21T21:12:43.810Z,1.85
2023-02-21T21:15:11.124Z,2.05
2023-02-21T21:17:39.336Z,1.90
2023-02-21T21:20:10.865Z,1.75
2023-02-21T21:22:37.617Z,1.90
2023-02-21T21:25:05.015Z,1.50
2023-02-21T21:27:32.876Z,1.35
2023-02-21T21:30:01.162Z,1.77
2023-02-21T21:32:28.556Z,1.40
2023-02-21T21:34:57.241Z,1.98
2023-02-21T21:37:27.700Z,0.98
2023-02-21T21:39:55.886Z,1.50
2023-02-21T21:42:26.372Z,2.03
2023-02-21T21:44:55.578Z,1.20
2023-02-21T21:47:28.265Z,0.90
2023-02-21T21:49:55.440Z,0.60
2023-02-21T21:52:24.875Z,1.17
2023-02-21T21:54:51.567Z,0.93
2023-02-21T21:57:19.250Z,0.93
2023-02-21T21:59:49.514Z,0.63
2023-02-21T22:02:16.460Z,0.93
2023-02-21T22:04:43.376Z,1.08
2023-02-21T22:07:11.961Z,0.60
2023-02-21T22:09:39.354Z,0.98
2023-02-21T22:12:07.856Z,0.60
2023-02-21T22:14:36.897Z,0.73
2023-02-21T22:17:05.469Z,0.60
2023-02-21T22:19:34.645Z,0.82
2023-02-21T22:22:05.455Z,0.50
2023-02-21T22:24:33.759Z,0.50
2023-02-21T22:27:00.537Z,0.45
2023-02-21T22:29:27.245Z,0.60
2023-02-21T22:31:54.029Z,0.50
2023-02-21T22:34:24.018Z,0.50
2023-02-21T22:36:52.801Z,0.45
2023-02-21T22:39:20.158Z,0.30
2023-02-21T22:41:48.974Z,0.40
2023-02-21T22:44:16.425Z,0.73
2023-02-21T22:46:48.003Z,0.60
2023-02-21T22:49:18.070Z,0.32
2023-02-21T22:51:44.841Z,0.70
2023-02-21T22:54:14.627Z,0.73
2023-02-21T22:56:51.092Z,0.70
2023-02-21T22:59:20.637Z,0.55
2023-02-21T23:01:47.841Z,0.40
2023-02-21T23:04:25.942Z,1.00
2023-02-21T23:06:57.924Z,0.45
2023-02-21T23:09:26.209Z,0.60
2023-02-21T23:11:55.521Z,0.60
2023-02-21T23:14:22.559Z,0.85
2023-02-21T23:16:49.686Z,0.55
2023-02-21T23:19:17.301Z,0.73
2023-02-21T23:21:49.554Z,0.52
2023-02-21T23:26:47.036Z,1.27
2023-02-21T23:29:17.312Z,0.70
2023-02-21T23:31:44.456Z,0.80
2023-02-21T23:34:12.140Z,0.77
2023-02-21T23:36:39.803Z,0.82
2023-02-21T23:39:11.376Z,0.95
2023-02-21T23:41:41.009Z,0.70
2023-02-21T23:44:11.106Z,0.65
2023-02-21T23:46:42.990Z,0.80
2023-02-21T23:49:15.952Z,0.90
2023-02-21T23:51:44.203Z,2.75
2023-02-21T23:54:13.670Z,1.05
2023-02-21T23:56:40.639Z,1.13
2023-02-21T23:59:07.819Z,1.10
